sensor_id;sensor_type;location;lat;lon;timestamp;pressure;altitude;pressure_sealevel;temperature;humidity
4012;BME280;2020;48.682;9.024;2023-08-12T00:00:01;96769.38;;;20.69;73.04
4012;BME280;2020;48.682;9.024;2023-08-12T00:02:33;96765.50;;;20.71;72.61
4012;BME280;2020;48.682;9.024;2023-08-12T00:04:59;96761.41;;;20.75;73.02
4012;BME280;2020;48.682;9.024;2023-08-12T00:07:24;96763.03;;;20.77;72.60
4012;BME280;2020;48.682;9.024;2023-08-12T00:09:49;96754.97;;;20.65;73.70
4012;BME280;2020;48.682;9.024;2023-08-12T00:12:15;96763.59;;;20.46;75.50
4012;BME280;2020;48.682;9.024;2023-08-12T00:14:40;96751.72;;;20.24;76.46
4012;BME280;2020;48.682;9.024;2023-08-12T00:17:05;96747.19;;;20.31;75.83
4012;BME280;2020;48.682;9.024;2023-08-12T00:19:31;96738.91;;;20.27;75.96
4012;BME280;2020;48.682;9.024;2023-08-12T00:21:56;96743.59;;;20.25;76.29
4012;BME280;2020;48.682;9.024;2023-08-12T00:24:22;96740.09;;;20.31;75.14
4012;BME280;2020;48.682;9.024;2023-08-12T00:26:47;96735.59;;;20.32;75.63
4012;BME280;2020;48.682;9.024;2023-08-12T00:29:12;96731.53;;;20.36;74.77
4012;BME280;2020;48.682;9.024;2023-08-12T00:31:37;96735.97;;;20.42;74.46
4012;BME280;2020;48.682;9.024;2023-08-12T00:34:03;96738.91;;;20.27;75.37
4012;BME280;2020;48.682;9.024;2023-08-12T00:36:28;96729.59;;;20.11;76.44
4012;BME280;2020;48.682;9.024;2023-08-12T00:38:53;96728.41;;;20.07;77.39
4012;BME280;2020;48.682;9.024;2023-08-12T00:41:18;96734.09;;;20.04;77.07
4012;BME280;2020;48.682;9.024;2023-08-12T00:43:44;96728.41;;;20.07;75.85
4012;BME280;2020;48.682;9.024;2023-08-12T00:46:09;96724.38;;;19.98;77.59
4012;BME280;2020;48.682;9.024;2023-08-12T00:48:34;96731.28;;;20.06;76.31
4012;BME280;2020;48.682;9.024;2023-08-12T00:51:00;96728.81;;;20.04;76.61
4012;BME280;2020;48.682;9.024;2023-08-12T00:53:25;96728.47;;;19.94;77.65
4012;BME280;2020;48.682;9.024;2023-08-12T00:55:50;96724.41;;;19.84;78.25
4012;BME280;2020;48.682;9.024;2023-08-12T00:58:16;96724.03;;;19.74;78.81
4012;BME280;2020;48.682;9.024;2023-08-12T01:00:42;96715.31;;;19.67;80.16
4012;BME280;2020;48.682;9.024;2023-08-12T01:03:07;96715.13;;;19.62;80.50
4012;BME280;2020;48.682;9.024;2023-08-12T01:05:33;96714.28;;;19.68;79.42
4012;BME280;2020;48.682;9.024;2023-08-12T01:07:58;96716.28;;;19.79;78.46
4012;BME280;2020;48.682;9.024;2023-08-12T01:10:30;96713.03;;;19.91;77.88
4012;BME280;2020;48.682;9.024;2023-08-12T01:15:37;96721.56;;;19.79;78.18
4012;BME280;2020;48.682;9.024;2023-08-12T01:18:04;96711.38;;;19.83;77.77
4012;BME280;2020;48.682;9.024;2023-08-12T01:20:30;96711.00;;;19.72;78.78
4012;BME280;2020;48.682;9.024;2023-08-12T01:22:58;96703.34;;;19.57;80.13
4012;BME280;2020;48.682;9.024;2023-08-12T01:25:26;96702.16;;;19.53;80.48
4012;BME280;2020;48.682;9.024;2023-08-12T01:27:52;96696.06;;;19.46;80.44
4012;BME280;2020;48.682;9.024;2023-08-12T01:30:18;96692.84;;;19.44;81.39
4012;BME280;2020;48.682;9.024;2023-08-12T01:32:49;96688.78;;;19.35;81.31
4012;BME280;2020;48.682;9.024;2023-08-12T01:35:26;96681.06;;;19.40;81.69
4012;BME280;2020;48.682;9.024;2023-08-12T01:37:57;96685.94;;;19.43;81.30
4012;BME280;2020;48.682;9.024;2023-08-12T01:40:24;96681.22;;;19.52;80.84
4012;BME280;2020;48.682;9.024;2023-08-12T01:42:50;96678.13;;;19.68;79.38
4012;BME280;2020;48.682;9.024;2023-08-12T01:45:18;96677.34;;;19.68;79.50
4012;BME280;2020;48.682;9.024;2023-08-12T01:47:44;96678.31;;;19.80;79.74
4012;BME280;2020;48.682;9.024;2023-08-12T01:50:10;96682.19;;;19.71;79.57
4012;BME280;2020;48.682;9.024;2023-08-12T01:52:35;96672.69;;;19.56;80.17
4012;BME280;2020;48.682;9.024;2023-08-12T01:55:00;96682.25;;;19.57;80.31
4012;BME280;2020;48.682;9.024;2023-08-12T01:57:26;96685.47;;;19.60;80.20
4012;BME280;2020;48.682;9.024;2023-08-12T01:59:51;96683.06;;;19.44;81.50
4012;BME280;2020;48.682;9.024;2023-08-12T02:02:16;96683.94;;;19.32;82.55
4012;BME280;2020;48.682;9.024;2023-08-12T02:04:42;96686.78;;;19.23;83.49
4012;BME280;2020;48.682;9.024;2023-08-12T02:07:08;96683.13;;;19.18;83.25
4012;BME280;2020;48.682;9.024;2023-08-12T02:09:33;96678.22;;;19.21;83.33
4012;BME280;2020;48.682;9.024;2023-08-12T02:11:58;96681.50;;;19.23;83.12
4012;BME280;2020;48.682;9.024;2023-08-12T02:14:24;96680.28;;;19.33;82.59
4012;BME280;2020;48.682;9.024;2023-08-12T02:16:49;96685.13;;;19.36;82.57
4012;BME280;2020;48.682;9.024;2023-08-12T02:19:14;96675.41;;;19.29;82.94
4012;BME280;2020;48.682;9.024;2023-08-12T02:21:41;96673.59;;;19.23;83.79
4012;BME280;2020;48.682;9.024;2023-08-12T02:24:06;96671.16;;;19.28;83.25
4012;BME280;2020;48.682;9.024;2023-08-12T02:26:32;96669.72;;;19.26;83.40
4012;BME280;2020;48.682;9.024;2023-08-12T02:28:57;96671.34;;;19.34;82.94
4012;BME280;2020;48.682;9.024;2023-08-12T02:31:22;96664.22;;;19.41;82.26
4012;BME280;2020;48.682;9.024;2023-08-12T02:33:48;96661.13;;;19.51;81.94
4012;BME280;2020;48.682;9.024;2023-08-12T02:36:14;96662.16;;;19.50;81.74
4012;BME280;2020;48.682;9.024;2023-08-12T02:38:40;96657.47;;;19.58;81.13
4012;BME280;2020;48.682;9.024;2023-08-12T02:41:05;96655.06;;;19.50;81.66
4012;BME280;2020;48.682;9.024;2023-08-12T02:43:30;96657.06;;;19.55;81.66
4012;BME280;2020;48.682;9.024;2023-08-12T02:45:55;96654.59;;;19.60;81.30
4012;BME280;2020;48.682;9.024;2023-08-12T02:48:21;96650.56;;;19.57;81.80
4012;BME280;2020;48.682;9.024;2023-08-12T02:50:46;96656.22;;;19.61;81.96
4012;BME280;2020;48.682;9.024;2023-08-12T02:53:11;96663.94;;;19.56;81.84
4012;BME280;2020;48.682;9.024;2023-08-12T02:55:37;96659.09;;;19.60;81.86
4012;BME280;2020;48.682;9.024;2023-08-12T02:58:04;96659.50;;;19.56;81.71
4012;BME280;2020;48.682;9.024;2023-08-12T03:00:29;96650.63;;;19.31;83.80
4012;BME280;2020;48.682;9.024;2023-08-12T03:02:55;96652.47;;;19.23;84.24
4012;BME280;2020;48.682;9.024;2023-08-12T03:05:21;96644.16;;;19.26;84.00
4012;BME280;2020;48.682;9.024;2023-08-12T03:07:46;96653.50;;;19.16;85.05
4012;BME280;2020;48.682;9.024;2023-08-12T03:10:12;96654.72;;;19.26;84.23
4012;BME280;2020;48.682;9.024;2023-08-12T03:12:37;96652.44;;;19.30;83.66
4012;BME280;2020;48.682;9.024;2023-08-12T03:15:04;96641.72;;;19.25;84.52
4012;BME280;2020;48.682;9.024;2023-08-12T03:17:30;96650.63;;;19.17;85.43
4012;BME280;2020;48.682;9.024;2023-08-12T03:19:57;96642.34;;;19.07;85.92
4012;BME280;2020;48.682;9.024;2023-08-12T03:22:24;96641.72;;;19.11;85.77
4012;BME280;2020;48.682;9.024;2023-08-12T03:24:49;96638.88;;;19.26;85.22
4012;BME280;2020;48.682;9.024;2023-08-12T03:27:15;96644.94;;;19.34;84.43
4012;BME280;2020;48.682;9.024;2023-08-12T03:29:40;96640.88;;;19.38;84.19
4012;BME280;2020;48.682;9.024;2023-08-12T03:32:05;96635.19;;;19.34;84.43
4012;BME280;2020;48.682;9.024;2023-08-12T03:34:30;96630.34;;;19.24;85.49
4012;BME280;2020;48.682;9.024;2023-08-12T03:36:56;96634.59;;;19.32;84.38
4012;BME280;2020;48.682;9.024;2023-08-12T03:39:21;96627.88;;;19.43;84.02
4012;BME280;2020;48.682;9.024;2023-08-12T03:41:46;96629.06;;;19.47;83.46
4012;BME280;2020;48.682;9.024;2023-08-12T03:44:12;96633.94;;;19.50;83.60
4012;BME280;2020;48.682;9.024;2023-08-12T03:46:37;96631.91;;;19.52;83.15
4012;BME280;2020;48.682;9.024;2023-08-12T03:49:02;96634.78;;;19.44;84.00
4012;BME280;2020;48.682;9.024;2023-08-12T03:51:27;96630.31;;;19.38;84.83
4012;BME280;2020;48.682;9.024;2023-08-12T03:53:53;96632.78;;;19.33;85.39
4012;BME280;2020;48.682;9.024;2023-08-12T03:56:18;96636.03;;;19.28;86.07
4012;BME280;2020;48.682;9.024;2023-08-12T03:58:43;96632.78;;;19.19;86.44
4012;BME280;2020;48.682;9.024;2023-08-12T04:01:08;96638.88;;;19.26;86.39
4012;BME280;2020;48.682;9.024;2023-08-12T04:03:34;96631.56;;;19.28;86.17
4012;BME280;2020;48.682;9.024;2023-08-12T04:05:59;96627.69;;;19.31;86.28
4012;BME280;2020;48.682;9.024;2023-08-12T04:08:25;96628.09;;;19.35;86.54
4012;BME280;2020;48.682;9.024;2023-08-12T04:10:50;96626.06;;;19.37;85.76
4012;BME280;2020;48.682;9.024;2023-08-12T04:13:16;96620.56;;;19.38;85.99
4012;BME280;2020;48.682;9.024;2023-08-12T04:15:42;96629.50;;;19.44;85.37
4012;BME280;2020;48.682;9.024;2023-08-12T04:18:07;96640.84;;;19.51;84.01
4012;BME280;2020;48.682;9.024;2023-08-12T04:20:33;96638.38;;;19.56;85.12
4012;BME280;2020;48.682;9.024;2023-08-12T04:22:58;96640.00;;;19.57;84.66
4012;BME280;2020;48.682;9.024;2023-08-12T04:25:23;96639.59;;;19.61;84.01
4012;BME280;2020;48.682;9.024;2023-08-12T04:27:48;96646.47;;;19.62;83.33
4012;BME280;2020;48.682;9.024;2023-08-12T04:30:16;96651.34;;;19.65;83.29
4012;BME280;2020;48.682;9.024;2023-08-12T04:32:41;96643.25;;;19.60;82.61
4012;BME280;2020;48.682;9.024;2023-08-12T04:35:07;96644.03;;;19.67;83.52
4012;BME280;2020;48.682;9.024;2023-08-12T04:37:32;96643.25;;;19.60;83.37
4012;BME280;2020;48.682;9.024;2023-08-12T04:39:58;96636.34;;;19.52;84.78
4012;BME280;2020;48.682;9.024;2023-08-12T04:42:23;96643.66;;;19.56;82.75
4012;BME280;2020;48.682;9.024;2023-08-12T04:44:48;96645.66;;;19.61;83.72
4012;BME280;2020;48.682;9.024;2023-08-12T04:47:13;96642.41;;;19.59;84.63
4012;BME280;2020;48.682;9.024;2023-08-12T04:49:39;96628.28;;;19.40;86.28
4012;BME280;2020;48.682;9.024;2023-08-12T04:52:05;96633.16;;;19.43;87.65
4012;BME280;2020;48.682;9.024;2023-08-12T04:54:30;96640.84;;;19.51;86.65
4012;BME280;2020;48.682;9.024;2023-08-12T04:56:55;96638.81;;;19.53;86.57
4012;BME280;2020;48.682;9.024;2023-08-12T04:59:21;96642.41;;;19.59;87.79
4012;BME280;2020;48.682;9.024;2023-08-12T05:01:47;96642.41;;;19.59;86.83
4012;BME280;2020;48.682;9.024;2023-08-12T05:04:12;96640.97;;;19.63;85.91
4012;BME280;2020;48.682;9.024;2023-08-12T05:06:38;96645.88;;;19.60;86.52
4012;BME280;2020;48.682;9.024;2023-08-12T05:09:03;96638.56;;;19.62;87.23
4012;BME280;2020;48.682;9.024;2023-08-12T05:11:28;96638.00;;;19.46;88.88
4012;BME280;2020;48.682;9.024;2023-08-12T05:13:54;96636.78;;;19.49;91.45
4012;BME280;2020;48.682;9.024;2023-08-12T05:16:19;96628.66;;;19.50;91.50
4012;BME280;2020;48.682;9.024;2023-08-12T05:18:44;96634.50;;;19.59;91.27
4012;BME280;2020;48.682;9.024;2023-08-12T05:21:09;96648.53;;;19.53;92.45
4012;BME280;2020;48.682;9.024;2023-08-12T05:23:35;96645.28;;;19.57;93.33
4012;BME280;2020;48.682;9.024;2023-08-12T05:26:01;96655.44;;;19.61;94.05
4012;BME280;2020;48.682;9.024;2023-08-12T05:28:26;96652.56;;;19.62;94.99
4012;BME280;2020;48.682;9.024;2023-08-12T05:30:51;96643.44;;;19.58;94.24
4012;BME280;2020;48.682;9.024;2023-08-12T05:33:20;96634.34;;;19.47;96.26
4012;BME280;2020;48.682;9.024;2023-08-12T05:35:47;96634.34;;;19.40;96.73
4012;BME280;2020;48.682;9.024;2023-08-12T05:38:13;96637.81;;;19.41;97.29
4012;BME280;2020;48.682;9.024;2023-08-12T05:40:38;96638.81;;;19.53;96.54
4012;BME280;2020;48.682;9.024;2023-08-12T05:43:03;96644.44;;;19.64;96.38
4012;BME280;2020;48.682;9.024;2023-08-12T05:45:28;96638.75;;;19.67;95.97
4012;BME280;2020;48.682;9.024;2023-08-12T05:47:54;96656.81;;;19.70;95.78
4012;BME280;2020;48.682;9.024;2023-08-12T05:50:19;96651.75;;;19.62;94.77
4012;BME280;2020;48.682;9.024;2023-08-12T05:52:44;96641.63;;;19.58;95.56
4012;BME280;2020;48.682;9.024;2023-08-12T05:55:10;96638.63;;;19.48;97.51
4012;BME280;2020;48.682;9.024;2023-08-12T05:57:35;96626.22;;;19.49;99.18
4012;BME280;2020;48.682;9.024;2023-08-12T06:00:00;96631.88;;;19.59;98.80
4012;BME280;2020;48.682;9.024;2023-08-12T06:02:25;96637.19;;;19.52;99.90
4012;BME280;2020;48.682;9.024;2023-08-12T06:04:51;96645.66;;;19.68;97.58
4012;BME280;2020;48.682;9.024;2023-08-12T06:07:17;96649.69;;;19.77;96.41
4012;BME280;2020;48.682;9.024;2023-08-12T06:09:43;96648.44;;;19.80;96.49
4012;BME280;2020;48.682;9.024;2023-08-12T06:12:09;96652.69;;;19.87;94.50
4012;BME280;2020;48.682;9.024;2023-08-12T06:14:37;96650.00;;;20.01;95.36
4012;BME280;2020;48.682;9.024;2023-08-12T06:17:02;96648.66;;;20.24;93.11
4012;BME280;2020;48.682;9.024;2023-08-12T06:19:27;96636.81;;;20.33;92.43
4012;BME280;2020;48.682;9.024;2023-08-12T06:21:53;96638.00;;;20.37;91.00
4012;BME280;2020;48.682;9.024;2023-08-12T06:24:18;96636.13;;;20.44;90.23
4012;BME280;2020;48.682;9.024;2023-08-12T06:26:43;96642.34;;;20.57;89.90
4012;BME280;2020;48.682;9.024;2023-08-12T06:29:08;96643.03;;;20.71;87.15
4012;BME280;2020;48.682;9.024;2023-08-12T06:31:34;96641.81;;;20.73;86.46
4012;BME280;2020;48.682;9.024;2023-08-12T06:33:59;96644.53;;;20.92;88.94
4012;BME280;2020;48.682;9.024;2023-08-12T06:36:24;96631.66;;;21.21;86.30
4012;BME280;2020;48.682;9.024;2023-08-12T06:38:49;96629.16;;;21.64;84.90
4012;BME280;2020;48.682;9.024;2023-08-12T06:41:15;96625.31;;;21.97;80.71
4012;BME280;2020;48.682;9.024;2023-08-12T06:43:40;96630.25;;;22.24;74.40
4012;BME280;2020;48.682;9.024;2023-08-12T06:46:05;96624.31;;;22.52;73.34
4012;BME280;2020;48.682;9.024;2023-08-12T06:48:30;96625.88;;;22.84;72.99
4012;BME280;2020;48.682;9.024;2023-08-12T06:50:56;96617.78;;;23.02;69.28
4012;BME280;2020;48.682;9.024;2023-08-12T06:53:21;96625.78;;;23.26;69.49
4012;BME280;2020;48.682;9.024;2023-08-12T06:55:47;96624.91;;;23.61;68.21
4012;BME280;2020;48.682;9.024;2023-08-12T06:58:13;96616.28;;;23.83;66.33
4012;BME280;2020;48.682;9.024;2023-08-12T07:00:38;96630.44;;;23.72;66.02
4012;BME280;2020;48.682;9.024;2023-08-12T07:03:04;96616.41;;;23.76;66.21
4012;BME280;2020;48.682;9.024;2023-08-12T07:05:29;96626.81;;;23.78;66.32
4012;BME280;2020;48.682;9.024;2023-08-12T07:07:54;96624.28;;;23.71;67.79
4012;BME280;2020;48.682;9.024;2023-08-12T07:10:20;96625.16;;;24.01;65.46
4012;BME280;2020;48.682;9.024;2023-08-12T07:12:45;96621.72;;;24.17;63.99
4012;BME280;2020;48.682;9.024;2023-08-12T07:15:10;96622.94;;;24.27;62.79
4012;BME280;2020;48.682;9.024;2023-08-12T07:17:36;96619.97;;;24.40;60.84
4012;BME280;2020;48.682;9.024;2023-08-12T07:20:01;96626.13;;;24.41;61.48
4012;BME280;2020;48.682;9.024;2023-08-12T07:22:27;96628.88;;;24.63;61.52
4012;BME280;2020;48.682;9.024;2023-08-12T07:24:52;96626.16;;;24.92;60.41
4012;BME280;2020;48.682;9.024;2023-08-12T07:27:18;96629.19;;;25.01;59.34
4012;BME280;2020;48.682;9.024;2023-08-12T07:29:43;96622.72;;;25.14;58.04
4012;BME280;2020;48.682;9.024;2023-08-12T07:32:08;96619.66;;;25.22;56.78
4012;BME280;2020;48.682;9.024;2023-08-12T07:34:33;96615.50;;;25.48;56.69
4012;BME280;2020;48.682;9.024;2023-08-12T07:36:59;96617.81;;;25.45;56.48
4012;BME280;2020;48.682;9.024;2023-08-12T07:39:24;96618.00;;;25.38;56.07
4012;BME280;2020;48.682;9.024;2023-08-12T07:41:49;96610.13;;;25.26;56.51
4012;BME280;2020;48.682;9.024;2023-08-12T07:44:14;96619.28;;;25.35;56.02
4012;BME280;2020;48.682;9.024;2023-08-12T07:46:40;96624.31;;;25.32;56.14
4012;BME280;2020;48.682;9.024;2023-08-12T07:49:05;96619.66;;;25.22;55.78
4012;BME280;2020;48.682;9.024;2023-08-12T07:51:30;96613.16;;;25.35;56.55
4012;BME280;2020;48.682;9.024;2023-08-12T07:53:55;96622.00;;;25.58;56.63
4012;BME280;2020;48.682;9.024;2023-08-12T07:56:21;96623.56;;;26.03;54.96
4012;BME280;2020;48.682;9.024;2023-08-12T07:58:46;96614.88;;;26.13;51.99
4012;BME280;2020;48.682;9.024;2023-08-12T08:01:12;96619.88;;;26.32;52.11
4012;BME280;2020;48.682;9.024;2023-08-12T08:03:38;96618.25;;;26.31;52.22
4012;BME280;2020;48.682;9.024;2023-08-12T08:06:04;96615.22;;;26.49;51.65
4012;BME280;2020;48.682;9.024;2023-08-12T08:08:29;96613.53;;;26.70;51.31
4012;BME280;2020;48.682;9.024;2023-08-12T08:10:54;96613.00;;;26.41;52.38
4012;BME280;2020;48.682;9.024;2023-08-12T08:13:20;96608.16;;;26.65;52.29
4012;BME280;2020;48.682;9.024;2023-08-12T08:15:46;96610.25;;;27.01;51.35
4012;BME280;2020;48.682;9.024;2023-08-12T08:18:11;96600.72;;;27.15;49.45
4012;BME280;2020;48.682;9.024;2023-08-12T08:20:37;96609.75;;;27.52;48.24
4012;BME280;2020;48.682;9.024;2023-08-12T08:23:02;96607.97;;;27.79;48.10
4012;BME280;2020;48.682;9.024;2023-08-12T08:25:27;96609.06;;;27.88;47.45
4012;BME280;2020;48.682;9.024;2023-08-12T08:27:53;96605.91;;;28.12;48.69
4012;BME280;2020;48.682;9.024;2023-08-12T08:30:18;96605.91;;;28.12;46.74
4012;BME280;2020;48.682;9.024;2023-08-12T08:32:43;96614.72;;;27.97;46.59
4012;BME280;2020;48.682;9.024;2023-08-12T08:35:08;96616.94;;;28.21;46.35
4012;BME280;2020;48.682;9.024;2023-08-12T08:37:34;96620.97;;;28.59;46.13
4012;BME280;2020;48.682;9.024;2023-08-12T08:39:59;96626.88;;;28.77;46.78
4012;BME280;2020;48.682;9.024;2023-08-12T08:42:24;96620.97;;;29.01;45.59
4012;BME280;2020;48.682;9.024;2023-08-12T08:44:52;96616.13;;;28.98;45.74
4012;BME280;2020;48.682;9.024;2023-08-12T08:47:19;96611.00;;;29.07;46.25
4012;BME280;2020;48.682;9.024;2023-08-12T08:49:50;96615.56;;;29.11;45.77
4012;BME280;2020;48.682;9.024;2023-08-12T08:52:16;96613.19;;;28.68;45.17
4012;BME280;2020;48.682;9.024;2023-08-12T08:54:42;96618.28;;;28.75;45.34
4012;BME280;2020;48.682;9.024;2023-08-12T08:57:08;96623.13;;;28.88;46.01
4012;BME280;2020;48.682;9.024;2023-08-12T08:59:33;96607.53;;;29.16;44.46
4012;BME280;2020;48.682;9.024;2023-08-12T09:01:59;96605.88;;;29.26;44.41
4012;BME280;2020;48.682;9.024;2023-08-12T09:04:26;96610.19;;;29.22;43.87
4012;BME280;2020;48.682;9.024;2023-08-12T09:06:53;96614.44;;;29.28;44.16
4012;BME280;2020;48.682;9.024;2023-08-12T09:09:20;96615.03;;;29.09;43.89
4012;BME280;2020;48.682;9.024;2023-08-12T09:11:47;96616.03;;;29.34;44.13
4012;BME280;2020;48.682;9.024;2023-08-12T09:14:12;96619.88;;;29.07;45.03
4012;BME280;2020;48.682;9.024;2023-08-12T09:16:38;96619.56;;;29.24;44.67
4012;BME280;2020;48.682;9.024;2023-08-12T09:19:04;96620.44;;;28.99;45.46
4012;BME280;2020;48.682;9.024;2023-08-12T09:21:30;96620.88;;;29.32;44.47
4012;BME280;2020;48.682;9.024;2023-08-12T09:23:55;96617.69;;;29.19;45.04
4012;BME280;2020;48.682;9.024;2023-08-12T09:26:21;96620.94;;;29.11;44.94
4012;BME280;2020;48.682;9.024;2023-08-12T09:28:47;96622.56;;;29.02;45.36
4012;BME280;2020;48.682;9.024;2023-08-12T09:31:27;96615.63;;;28.91;45.10
4012;BME280;2020;48.682;9.024;2023-08-12T09:33:54;96607.56;;;29.06;45.08
4012;BME280;2020;48.682;9.024;2023-08-12T09:36:22;96603.84;;;28.86;45.98
4012;BME280;2020;48.682;9.024;2023-08-12T09:38:47;96597.94;;;28.69;45.82
4012;BME280;2020;48.682;9.024;2023-08-12T09:41:12;96588.81;;;28.39;46.71
4012;BME280;2020;48.682;9.024;2023-08-12T09:43:41;96596.06;;;28.28;46.81
4012;BME280;2020;48.682;9.024;2023-08-12T09:46:11;96607.50;;;28.08;47.99
4012;BME280;2020;48.682;9.024;2023-08-12T09:48:37;96601.09;;;28.09;48.02
4012;BME280;2020;48.682;9.024;2023-08-12T09:51:02;96596.25;;;28.06;49.24
4012;BME280;2020;48.682;9.024;2023-08-12T09:53:28;96585.56;;;27.95;48.34
4012;BME280;2020;48.682;9.024;2023-08-12T09:55:54;96578.06;;;27.97;49.52
4012;BME280;2020;48.682;9.024;2023-08-12T09:58:21;96584.16;;;27.77;49.90
4012;BME280;2020;48.682;9.024;2023-08-12T10:00:48;96607.94;;;27.68;50.06
4012;BME280;2020;48.682;9.024;2023-08-12T10:03:15;96596.78;;;27.87;50.72
4012;BME280;2020;48.682;9.024;2023-08-12T10:05:43;96589.31;;;27.99;51.04
4012;BME280;2020;48.682;9.024;2023-08-12T10:08:09;96581.78;;;27.86;50.48
4012;BME280;2020;48.682;9.024;2023-08-12T10:10:35;96581.25;;;27.84;50.75
4012;BME280;2020;48.682;9.024;2023-08-12T10:13:01;96584.47;;;27.91;50.33
4012;BME280;2020;48.682;9.024;2023-08-12T10:15:26;96583.41;;;27.97;51.30
4012;BME280;2020;48.682;9.024;2023-08-12T10:17:52;96581.03;;;27.96;50.65
4012;BME280;2020;48.682;9.024;2023-08-12T10:20:24;96584.00;;;28.15;49.98
4012;BME280;2020;48.682;9.024;2023-08-12T10:22:50;96583.16;;;27.94;49.95
4012;BME280;2020;48.682;9.024;2023-08-12T10:25:17;96592.56;;;28.17;48.84
4012;BME280;2020;48.682;9.024;2023-08-12T10:27:43;96593.63;;;28.21;48.08
4012;BME280;2020;48.682;9.024;2023-08-12T10:30:09;96588.81;;;28.28;48.80
4012;BME280;2020;48.682;9.024;2023-08-12T10:32:35;96589.84;;;28.01;48.15
4012;BME280;2020;48.682;9.024;2023-08-12T10:35:00;96592.53;;;28.07;48.76
4012;BME280;2020;48.682;9.024;2023-08-12T10:37:26;96586.69;;;28.15;47.97
4012;BME280;2020;48.682;9.024;2023-08-12T10:39:55;96586.38;;;28.06;47.05
4012;BME280;2020;48.682;9.024;2023-08-12T10:45:04;96594.22;;;28.59;46.07
4012;BME280;2020;48.682;9.024;2023-08-12T10:47:37;96592.56;;;29.00;45.93
4012;BME280;2020;48.682;9.024;2023-08-12T10:50:03;96586.91;;;29.01;45.15
4012;BME280;2020;48.682;9.024;2023-08-12T10:52:31;96584.50;;;29.05;45.32
4012;BME280;2020;48.682;9.024;2023-08-12T10:55:16;96590.44;;;28.97;45.64
4012;BME280;2020;48.682;9.024;2023-08-12T10:57:42;96594.69;;;29.03;46.23
4012;BME280;2020;48.682;9.024;2023-08-12T11:00:13;96593.66;;;28.73;45.55
4012;BME280;2020;48.682;9.024;2023-08-12T11:02:39;96587.25;;;28.64;46.25
4012;BME280;2020;48.682;9.024;2023-08-12T11:05:10;96593.06;;;29.17;45.63
4012;BME280;2020;48.682;9.024;2023-08-12T11:07:58;96581.91;;;29.66;45.22
4012;BME280;2020;48.682;9.024;2023-08-12T11:10:26;96581.09;;;29.65;45.23
4012;BME280;2020;48.682;9.024;2023-08-12T11:15:19;96575.22;;;29.58;45.73
4012;BME280;2020;48.682;9.024;2023-08-12T11:17:47;96576.47;;;29.10;46.19
4012;BME280;2020;48.682;9.024;2023-08-12T11:20:13;96575.38;;;29.16;46.28
4012;BME280;2020;48.682;9.024;2023-08-12T11:22:44;96569.97;;;29.27;46.31
4012;BME280;2020;48.682;9.024;2023-08-12T11:25:12;96559.22;;;29.37;46.84
4012;BME280;2020;48.682;9.024;2023-08-12T11:27:38;96565.72;;;29.21;46.78
4012;BME280;2020;48.682;9.024;2023-08-12T11:30:06;96561.78;;;29.63;46.30
4012;BME280;2020;48.682;9.024;2023-08-12T11:32:32;96560.63;;;29.85;45.04
4012;BME280;2020;48.682;9.024;2023-08-12T11:34:58;96553.91;;;29.27;45.22
4012;BME280;2020;48.682;9.024;2023-08-12T11:37:23;96556.38;;;29.08;45.84
4012;BME280;2020;48.682;9.024;2023-08-12T11:39:51;96550.66;;;29.35;46.63
4012;BME280;2020;48.682;9.024;2023-08-12T11:42:17;96550.72;;;29.19;46.43
4012;BME280;2020;48.682;9.024;2023-08-12T11:44:42;96545.88;;;29.22;46.31
4012;BME280;2020;48.682;9.024;2023-08-12T11:47:07;96535.53;;;29.60;46.62
4012;BME280;2020;48.682;9.024;2023-08-12T11:49:32;96543.38;;;30.01;44.98
4012;BME280;2020;48.682;9.024;2023-08-12T11:51:58;96536.53;;;29.74;45.33
4012;BME280;2020;48.682;9.024;2023-08-12T11:54:23;96531.91;;;29.30;46.59
4012;BME280;2020;48.682;9.024;2023-08-12T11:56:49;96537.47;;;29.54;47.14
4012;BME280;2020;48.682;9.024;2023-08-12T11:59:14;96548.78;;;29.41;46.64
4012;BME280;2020;48.682;9.024;2023-08-12T12:01:40;96559.34;;;29.06;47.40
4012;BME280;2020;48.682;9.024;2023-08-12T12:04:05;96572.25;;;28.83;47.35
4012;BME280;2020;48.682;9.024;2023-08-12T12:06:40;96577.31;;;28.69;47.42
4012;BME280;2020;48.682;9.024;2023-08-12T12:09:07;96590.44;;;28.71;47.43
4012;BME280;2020;48.682;9.024;2023-08-12T12:11:36;96607.84;;;28.68;48.44
4012;BME280;2020;48.682;9.024;2023-08-12T12:14:08;96612.94;;;28.65;47.73
4012;BME280;2020;48.682;9.024;2023-08-12T12:16:41;96625.22;;;28.24;51.65
4012;BME280;2020;48.682;9.024;2023-08-12T12:19:09;96618.09;;;27.61;57.98
4012;BME280;2020;48.682;9.024;2023-08-12T12:21:39;96640.84;;;27.21;62.00
4012;BME280;2020;48.682;9.024;2023-08-12T12:24:06;96636.66;;;26.60;65.16
4012;BME280;2020;48.682;9.024;2023-08-12T12:26:32;96647.81;;;26.56;69.03
4012;BME280;2020;48.682;9.024;2023-08-12T12:28:57;96648.66;;;26.30;68.49
4012;BME280;2020;48.682;9.024;2023-08-12T12:31:22;96662.72;;;25.97;68.31
4012;BME280;2020;48.682;9.024;2023-08-12T12:33:48;96675.97;;;25.70;68.22
4012;BME280;2020;48.682;9.024;2023-08-12T12:36:13;96669.56;;;25.49;68.88
4012;BME280;2020;48.682;9.024;2023-08-12T12:38:38;96673.25;;;25.25;68.63
4012;BME280;2020;48.682;9.024;2023-08-12T12:41:03;96674.78;;;25.04;72.76
4012;BME280;2020;48.682;9.024;2023-08-12T12:43:29;96679.97;;;24.94;72.38
4012;BME280;2020;48.682;9.024;2023-08-12T12:45:54;96692.38;;;25.05;74.32
4012;BME280;2020;48.682;9.024;2023-08-12T12:48:19;96686.16;;;25.17;76.71
4012;BME280;2020;48.682;9.024;2023-08-12T12:50:44;96681.31;;;25.14;74.84
4012;BME280;2020;48.682;9.024;2023-08-12T12:53:10;96673.41;;;25.19;74.24
4012;BME280;2020;48.682;9.024;2023-08-12T12:55:35;96677.19;;;25.23;74.49
4012;BME280;2020;48.682;9.024;2023-08-12T12:58:00;96678.88;;;25.29;71.82
4012;BME280;2020;48.682;9.024;2023-08-12T13:00:25;96682.28;;;25.24;71.45
4012;BME280;2020;48.682;9.024;2023-08-12T13:02:51;96698.41;;;25.18;74.12
4012;BME280;2020;48.682;9.024;2023-08-12T13:05:16;96699.34;;;24.60;77.14
4012;BME280;2020;48.682;9.024;2023-08-12T13:07:41;96706.19;;;24.27;80.24
4012;BME280;2020;48.682;9.024;2023-08-12T13:10:07;96700.25;;;24.37;79.63
4012;BME280;2020;48.682;9.024;2023-08-12T13:12:32;96696.81;;;24.24;79.32
4012;BME280;2020;48.682;9.024;2023-08-12T13:14:57;96697.78;;;24.18;78.20
4012;BME280;2020;48.682;9.024;2023-08-12T13:17:23;96699.06;;;24.16;77.91
4012;BME280;2020;48.682;9.024;2023-08-12T13:19:48;96692.88;;;23.98;79.37
4012;BME280;2020;48.682;9.024;2023-08-12T13:22:14;96696.69;;;23.90;80.42